Time;durP1;ratioP1;P1;durP2;ratioP2;P2;SDS_P1;SDS_P2;PMS_P1;PMS_P2;Temp;Humidity;BMP_temperature;BMP_pressure;BME280_temperature;BME280_humidity;BME280_pressure;Samples;Min_cycle;Max_cycle;Signal;HPM_P1;HPM_P2
2022/06/23 00:00:41;;;;;;;;;17.67;16.00;;;;;;;;4898269;28;45466;-71
2022/06/23 00:03:06;;;;;;;;;19.67;18.67;;;;;;;;4882652;29;46339;-72
2022/06/23 00:05:39;;;;;;;;;19.00;18.67;;;;;;;;4894255;29;46525;-72
2022/06/23 00:08:07;;;;;;;;;20.67;19.00;;;;;;;;4883461;29;45373;-70
2022/06/23 00:10:35;;;;;;;;;18.67;17.33;;;;;;;;4878109;29;45385;-71
2022/06/23 00:13:03;;;;;;;;;25.00;23.00;;;;;;;;4880511;29;45923;-71
2022/06/23 00:15:35;;;;;;;;;24.00;23.00;;;;;;;;4880617;28;45405;-70
2022/06/23 00:18:01;;;;;;;;;28.00;24.67;;;;;;;;4880348;29;45362;-70
2022/06/23 00:20:30;;;;;;;;;23.00;23.00;;;;;;;;4900347;28;45375;-70
2022/06/23 00:22:58;;;;;;;;;26.67;24.67;;;;;;;;4887965;29;45569;-70
2022/06/23 00:25:42;;;;;;;;;23.33;23.33;;;;;;;;4895012;28;45675;-69
2022/06/23 00:28:26;;;;;;;;;26.67;26.67;;;;;;;;4890839;29;45315;-69
2022/06/23 00:30:53;;;;;;;;;30.67;27.33;;;;;;;;4887925;29;45342;-69
2022/06/23 00:33:24;;;;;;;;;31.67;30.67;;;;;;;;4884151;28;45514;-69
2022/06/23 00:35:50;;;;;;;;;30.00;29.00;;;;;;;;4899275;29;48206;-69
2022/06/23 00:38:20;;;;;;;;;29.67;26.00;;;;;;;;4884723;28;45239;-70
2022/06/23 00:40:46;;;;;;;;;37.00;30.00;;;;;;;;4896904;29;45356;-70
2022/06/23 00:43:12;;;;;;;;;25.00;25.00;;;;;;;;4875910;29;45475;-70
2022/06/23 00:45:40;;;;;;;;;30.67;28.67;;;;;;;;4887973;29;45383;-69
2022/06/23 00:48:06;;;;;;;;;32.67;29.67;;;;;;;;4886306;29;45400;-69
2022/06/23 00:50:34;;;;;;;;;30.67;28.67;;;;;;;;4892887;29;45205;-70
2022/06/23 00:53:02;;;;;;;;;34.00;30.33;;;;;;;;4886144;29;47302;-70
2022/06/23 00:55:33;;;;;;;;;29.33;27.00;;;;;;;;4894049;28;46081;-70
2022/06/23 00:58:00;;;;;;;;;29.67;27.33;;;;;;;;4883698;28;47415;-70
2022/06/23 01:00:35;;;;;;;;;34.67;32.00;;;;;;;;4891161;29;45426;-69
2022/06/23 01:03:05;;;;;;;;;30.00;28.67;;;;;;;;4881062;28;45495;-70
2022/06/23 01:05:33;;;;;;;;;32.67;31.33;;;;;;;;4902235;29;46582;-70
2022/06/23 01:08:12;;;;;;;;;27.67;26.33;;;;;;;;4887963;29;45229;-69
2022/06/23 01:10:37;;;;;;;;;30.33;29.00;;;;;;;;4893193;28;45356;-69
2022/06/23 01:13:02;;;;;;;;;32.67;30.00;;;;;;;;4882238;29;45390;-69
2022/06/23 01:15:28;;;;;;;;;31.67;30.00;;;;;;;;4879939;28;45658;-70
2022/06/23 01:18:06;;;;;;;;;34.33;31.67;;;;;;;;4879423;29;45439;-70
2022/06/23 01:20:36;;;;;;;;;30.67;26.00;;;;;;;;4887974;28;45346;-70
2022/06/23 01:23:04;;;;;;;;;29.67;28.67;;;;;;;;4885459;28;45364;-69
2022/06/23 01:25:29;;;;;;;;;28.67;28.00;;;;;;;;4891685;29;47929;-70
2022/06/23 01:27:59;;;;;;;;;26.00;26.00;;;;;;;;4889999;29;45427;-70
2022/06/23 01:30:27;;;;;;;;;27.67;27.67;;;;;;;;4886792;29;45441;-70
2022/06/23 01:33:13;;;;;;;;;27.00;27.00;;;;;;;;4886431;29;45475;-70
2022/06/23 01:35:42;;;;;;;;;31.33;30.00;;;;;;;;4893209;29;45319;-70
2022/06/23 01:38:14;;;;;;;;;35.00;31.33;;;;;;;;4885591;28;45359;-70
2022/06/23 01:40:41;;;;;;;;;27.67;26.33;;;;;;;;4881938;29;45371;-70
2022/06/23 01:43:11;;;;;;;;;27.33;25.00;;;;;;;;4875837;29;45447;-70
2022/06/23 01:45:45;;;;;;;;;31.67;28.33;;;;;;;;4901030;28;45800;-70
2022/06/23 01:48:17;;;;;;;;;32.67;30.00;;;;;;;;4877716;29;45398;-70
2022/06/23 01:50:52;;;;;;;;;33.67;30.33;;;;;;;;4890709;29;45302;-70
2022/06/23 01:53:17;;;;;;;;;29.00;26.33;;;;;;;;4880471;29;46156;-70
2022/06/23 01:55:50;;;;;;;;;30.67;30.00;;;;;;;;4898951;29;45382;-70
2022/06/23 01:58:17;;;;;;;;;29.67;29.00;;;;;;;;4889043;28;45351;-70
2022/06/23 02:00:44;;;;;;;;;31.00;29.33;;;;;;;;4884484;28;45499;-70
2022/06/23 02:03:25;;;;;;;;;35.33;32.00;;;;;;;;4879180;29;46347;-70
2022/06/23 02:05:56;;;;;;;;;35.67;30.67;;;;;;;;4887680;29;45530;-70
2022/06/23 02:08:40;;;;;;;;;36.00;29.67;;;;;;;;4879506;29;45466;-70
2022/06/23 02:11:11;;;;;;;;;32.67;30.00;;;;;;;;4896000;29;45388;-70
2022/06/23 02:13:42;;;;;;;;;31.33;30.33;;;;;;;;4885239;29;45297;-70
2022/06/23 02:16:16;;;;;;;;;31.67;29.33;;;;;;;;4894865;29;46078;-70
2022/06/23 02:18:57;;;;;;;;;32.33;30.00;;;;;;;;4886088;29;45256;-70
2022/06/23 02:21:31;;;;;;;;;34.00;31.67;;;;;;;;4896823;29;45300;-70
2022/06/23 02:24:11;;;;;;;;;34.00;32.00;;;;;;;;4887009;29;45554;-70
2022/06/23 02:26:55;;;;;;;;;32.00;30.00;;;;;;;;4870264;29;45355;-70
2022/06/23 02:29:30;;;;;;;;;31.67;29.67;;;;;;;;4886665;29;45361;-70
2022/06/23 02:32:00;;;;;;;;;35.00;31.00;;;;;;;;4884269;29;45390;-70
2022/06/23 02:34:30;;;;;;;;;33.33;31.00;;;;;;;;4885002;29;45532;-70
2022/06/23 02:37:05;;;;;;;;;32.33;29.67;;;;;;;;4886131;29;46830;-70
2022/06/23 02:39:48;;;;;;;;;32.33;29.00;;;;;;;;4882553;29;45514;-70
2022/06/23 02:42:32;;;;;;;;;32.00;29.00;;;;;;;;4887743;29;45560;-70
2022/06/23 02:45:00;;;;;;;;;33.00;30.67;;;;;;;;4888404;29;45449;-70
2022/06/23 02:47:44;;;;;;;;;37.00;33.33;;;;;;;;4887983;29;46218;-70
2022/06/23 02:50:25;;;;;;;;;39.33;32.67;;;;;;;;4896557;28;45285;-70
2022/06/23 02:53:09;;;;;;;;;31.00;29.67;;;;;;;;4882998;29;45309;-70
2022/06/23 02:55:53;;;;;;;;;36.33;32.67;;;;;;;;4884963;29;45313;-70
2022/06/23 02:58:25;;;;;;;;;37.67;33.33;;;;;;;;4876703;29;46737;-71
2022/06/23 03:01:12;;;;;;;;;38.67;33.33;;;;;;;;4877422;29;45489;-70
2022/06/23 03:03:42;;;;;;;;;35.33;33.00;;;;;;;;4908527;28;45475;-70
2022/06/23 03:06:13;;;;;;;;;31.33;30.33;;;;;;;;4894668;29;45491;-70
2022/06/23 03:08:43;;;;;;;;;41.67;33.33;;;;;;;;4887000;29;45582;-70
2022/06/23 03:11:14;;;;;;;;;36.00;30.00;;;;;;;;4897509;29;45313;-70
2022/06/23 03:13:40;;;;;;;;;42.00;36.33;;;;;;;;4888736;29;45489;-70
2022/06/23 03:16:20;;;;;;;;;39.33;33.33;;;;;;;;4900384;29;45225;-70
2022/06/23 03:18:51;;;;;;;;;39.00;34.67;;;;;;;;4893536;29;45797;-70
2022/06/23 03:21:30;;;;;;;;;35.67;32.67;;;;;;;;4901487;29;45313;-70
2022/06/23 03:24:04;;;;;;;;;36.67;33.00;;;;;;;;4885592;29;45277;-70
2022/06/23 03:26:34;;;;;;;;;39.33;33.00;;;;;;;;4914538;28;45646;-70
2022/06/23 03:29:19;;;;;;;;;33.67;31.33;;;;;;;;4882831;29;45636;-70
2022/06/23 03:31:44;;;;;;;;;27.33;27.33;;;;;;;;4890499;29;45533;-70
2022/06/23 03:34:18;;;;;;;;;12.00;10.33;;;;;;;;4901885;28;45331;-70
2022/06/23 03:36:46;;;;;;;;;11.33;10.67;;;;;;;;4893516;28;45376;-70
2022/06/23 03:42:04;;;;;;;;;8.67;8.67;;;;;;;;4888482;29;45148;-70
2022/06/23 03:44:34;;;;;;;;;8.00;7.00;;;;;;;;4897489;28;45371;-70
2022/06/23 03:47:06;;;;;;;;;6.00;6.00;;;;;;;;4891438;29;45529;-70
2022/06/23 03:49:31;;;;;;;;;6.00;5.00;;;;;;;;4898936;28;46339;-70
2022/06/23 03:51:58;;;;;;;;;6.25;5.50;;;;;;;;4899456;28;45562;-70
2022/06/23 03:54:27;;;;;;;;;5.67;5.67;;;;;;;;4882933;29;45353;-70
2022/06/23 03:56:56;;;;;;;;;6.00;4.33;;;;;;;;4896389;29;45846;-70
2022/06/23 03:59:26;;;;;;;;;5.67;5.67;;;;;;;;4872888;29;45458;-70
2022/06/23 04:01:54;;;;;;;;;5.33;5.33;;;;;;;;4887595;29;45536;-70
2022/06/23 04:04:24;;;;;;;;;6.33;5.67;;;;;;;;4883906;29;45386;-70
2022/06/23 04:06:50;;;;;;;;;6.00;5.33;;;;;;;;4889403;29;45724;-70
2022/06/23 04:09:27;;;;;;;;;8.33;8.00;;;;;;;;4888209;29;45406;-70
2022/06/23 04:11:58;;;;;;;;;5.33;5.33;;;;;;;;4886867;29;45492;-71
2022/06/23 04:14:41;;;;;;;;;7.33;6.00;;;;;;;;4887211;29;45336;-70
2022/06/23 04:17:09;;;;;;;;;7.00;7.00;;;;;;;;4888440;28;45403;-70
2022/06/23 04:19:35;;;;;;;;;4.33;3.67;;;;;;;;4892190;29;46409;-69
2022/06/23 04:22:05;;;;;;;;;5.00;5.00;;;;;;;;4890737;28;46015;-70
2022/06/23 04:24:32;;;;;;;;;6.00;5.00;;;;;;;;4894892;29;45468;-70
2022/06/23 04:27:04;;;;;;;;;6.33;4.67;;;;;;;;4894232;28;46433;-71
2022/06/23 04:29:36;;;;;;;;;6.67;5.00;;;;;;;;4891757;29;46054;-70
2022/06/23 04:32:06;;;;;;;;;9.00;5.00;;;;;;;;4882452;29;45296;-70
2022/06/23 04:34:33;;;;;;;;;6.67;4.33;;;;;;;;4884569;29;45376;-70
2022/06/23 04:36:59;;;;;;;;;6.00;3.67;;;;;;;;4884181;29;45577;-70
2022/06/23 04:39:24;;;;;;;;;5.67;4.00;;;;;;;;4888717;29;45141;-70
2022/06/23 04:41:53;;;;;;;;;4.00;4.00;;;;;;;;4895903;29;45939;-70
2022/06/23 04:44:22;;;;;;;;;4.67;4.67;;;;;;;;4882719;29;45321;-70
2022/06/23 04:46:52;;;;;;;;;5.00;5.00;;;;;;;;4891532;28;45597;-69
2022/06/23 04:49:22;;;;;;;;;8.00;5.33;;;;;;;;4890117;29;46301;-70
2022/06/23 04:51:50;;;;;;;;;9.00;7.00;;;;;;;;4895114;28;45491;-70
2022/06/23 04:54:26;;;;;;;;;4.67;4.67;;;;;;;;4877399;29;45390;-70
2022/06/23 04:56:55;;;;;;;;;6.00;5.00;;;;;;;;4885156;29;45624;-70
2022/06/23 04:59:26;;;;;;;;;5.00;4.33;;;;;;;;4871330;29;45427;-70
2022/06/23 05:01:53;;;;;;;;;5.67;4.00;;;;;;;;4881946;29;45356;-70
2022/06/23 05:04:27;;;;;;;;;4.33;4.00;;;;;;;;4885751;28;45385;-70
2022/06/23 05:06:54;;;;;;;;;6.33;4.00;;;;;;;;4884059;29;45454;-70
2022/06/23 05:09:32;;;;;;;;;5.00;5.00;;;;;;;;4881596;29;45427;-70
2022/06/23 05:12:03;;;;;;;;;6.67;5.00;;;;;;;;4881396;29;45591;-70
2022/06/23 05:14:50;;;;;;;;;5.33;5.00;;;;;;;;4893834;29;45329;-70
2022/06/23 05:17:20;;;;;;;;;5.00;4.00;;;;;;;;4886638;28;45685;-71
2022/06/23 05:19:46;;;;;;;;;9.00;4.00;;;;;;;;4896132;29;46132;-70
2022/06/23 05:22:17;;;;;;;;;8.00;5.00;;;;;;;;4890428;28;45387;-70
2022/06/23 05:24:44;;;;;;;;;5.00;5.00;;;;;;;;4891441;29;45321;-70
2022/06/23 05:27:24;;;;;;;;;7.67;5.00;;;;;;;;4883411;29;46977;-70
2022/06/23 05:29:53;;;;;;;;;5.67;4.33;;;;;;;;4879738;29;45514;-70
2022/06/23 05:32:24;;;;;;;;;5.67;4.00;;;;;;;;4881065;29;45252;-70
2022/06/23 05:34:54;;;;;;;;;5.00;4.00;;;;;;;;4888779;29;45428;-70
2022/06/23 05:37:27;;;;;;;;;6.00;4.33;;;;;;;;4890687;28;46031;-70
2022/06/23 05:40:11;;;;;;;;;6.67;4.00;;;;;;;;4887392;29;46588;-70
2022/06/23 05:42:40;;;;;;;;;7.00;3.67;;;;;;;;4888969;29;45600;-72
2022/06/23 05:45:09;;;;;;;;;5.00;5.00;;;;;;;;4890255;29;45305;-70
2022/06/23 05:47:34;;;;;;;;;5.33;4.33;;;;;;;;4893600;29;45607;-70
2022/06/23 05:50:07;;;;;;;;;4.67;4.00;;;;;;;;4896544;29;47966;-70
2022/06/23 05:52:53;;;;;;;;;5.00;5.00;;;;;;;;4880536;29;45363;-70
2022/06/23 05:55:30;;;;;;;;;6.00;5.33;;;;;;;;4890573;29;45659;-69
2022/06/23 05:57:59;;;;;;;;;6.00;3.33;;;;;;;;4878994;29;46256;-69
2022/06/23 06:00:56;;;;;;;;;4.00;3.00;;;;;;;;4886884;29;45525;-70
2022/06/23 06:03:48;;;;;;;;;6.00;5.00;;;;;;;;4896143;28;45418;-69
2022/06/23 06:06:13;;;;;;;;;7.00;6.00;;;;;;;;4892990;29;45537;-70
2022/06/23 06:11:29;;;;;;;;;3.33;3.33;;;;;;;;4887435;29;45482;-69
2022/06/23 06:13:54;;;;;;;;;6.67;6.67;;;;;;;;4885266;29;45253;-70
2022/06/23 06:16:20;;;;;;;;;8.00;6.67;;;;;;;;4891584;29;45344;-69
2022/06/23 06:18:46;;;;;;;;;11.00;8.00;;;;;;;;4885368;29;45419;-70
2022/06/23 06:21:12;;;;;;;;;7.33;7.00;;;;;;;;4893321;29;47253;-69
2022/06/23 06:23:44;;;;;;;;;6.67;6.67;;;;;;;;4889409;28;45348;-70
2022/06/23 06:26:11;;;;;;;;;10.00;7.00;;;;;;;;4908610;28;45318;-69
2022/06/23 06:28:36;;;;;;;;;8.00;8.00;;;;;;;;4886562;28;45234;-69
2022/06/23 06:31:24;;;;;;;;;7.00;7.00;;;;;;;;4887320;29;45429;-70
2022/06/23 06:33:58;;;;;;;;;11.00;8.33;;;;;;;;4888533;29;45249;-70
2022/06/23 06:36:26;;;;;;;;;7.00;7.00;;;;;;;;4898565;29;45480;-70
2022/06/23 06:38:53;;;;;;;;;9.00;7.00;;;;;;;;4890888;29;47217;-70
2022/06/23 06:41:18;;;;;;;;;6.00;5.33;;;;;;;;4900484;28;45409;-70
2022/06/23 06:43:44;;;;;;;;;12.33;9.67;;;;;;;;4896483;29;45411;-71
2022/06/23 06:46:09;;;;;;;;;8.00;7.00;;;;;;;;4900816;29;45347;-69
2022/06/23 06:48:38;;;;;;;;;7.33;6.67;;;;;;;;4891443;28;47794;-69
2022/06/23 06:51:09;;;;;;;;;8.33;6.00;;;;;;;;4902535;28;46531;-74
2022/06/23 06:53:39;;;;;;;;;9.00;8.00;;;;;;;;4879363;29;45430;-70
2022/06/23 06:56:04;;;;;;;;;8.67;7.00;;;;;;;;4893672;29;45430;-70
2022/06/23 06:58:33;;;;;;;;;8.00;6.33;;;;;;;;4876405;29;45277;-69
2022/06/23 07:01:01;;;;;;;;;9.67;7.67;;;;;;;;4893524;29;46391;-70
2022/06/23 07:03:27;;;;;;;;;9.33;7.00;;;;;;;;4876974;28;45259;-70
2022/06/23 07:06:02;;;;;;;;;7.67;6.33;;;;;;;;4892371;29;45522;-70
2022/06/23 07:08:30;;;;;;;;;6.33;6.33;;;;;;;;4878406;29;47282;-71
2022/06/23 07:10:59;;;;;;;;;7.33;5.67;;;;;;;;4887183;29;45600;-71
2022/06/23 07:13:28;;;;;;;;;8.00;8.00;;;;;;;;4884174;29;45353;-71
2022/06/23 07:15:56;;;;;;;;;9.00;6.00;;;;;;;;4896483;29;45435;-70
2022/06/23 07:18:26;;;;;;;;;9.00;9.00;;;;;;;;4875451;29;45489;-71
2022/06/23 07:20:58;;;;;;;;;6.33;6.33;;;;;;;;4885760;29;45451;-70
2022/06/23 07:23:34;;;;;;;;;5.25;5.00;;;;;;;;4881718;28;45457;-71
2022/06/23 07:26:19;;;;;;;;;7.75;7.00;;;;;;;;4901022;28;45389;-71
2022/06/23 07:28:48;;;;;;;;;8.50;6.00;;;;;;;;4879590;29;45566;-71
2022/06/23 07:31:16;;;;;;;;;7.25;6.00;;;;;;;;4901816;28;46774;-71
2022/06/23 07:33:44;;;;;;;;;4.00;3.75;;;;;;;;4879103;29;45542;-70
2022/06/23 07:36:16;;;;;;;;;6.75;5.00;;;;;;;;4894406;29;45402;-71
2022/06/23 07:38:44;;;;;;;;;8.50;8.00;;;;;;;;4884351;29;45519;-71
2022/06/23 07:41:13;;;;;;;;;8.25;6.00;;;;;;;;4898434;28;45408;-71
2022/06/23 07:44:01;;;;;;;;;4.25;3.25;;;;;;;;4882131;29;45343;-72
2022/06/23 07:46:27;;;;;;;;;6.25;6.25;;;;;;;;4896303;28;45576;-71
2022/06/23 07:48:52;;;;;;;;;7.75;6.00;;;;;;;;4876978;29;45382;-71
2022/06/23 07:51:17;;;;;;;;;4.25;4.25;;;;;;;;4886296;29;46785;-70
2022/06/23 07:53:45;;;;;;;;;8.25;8.00;;;;;;;;4875396;29;45388;-71
2022/06/23 07:56:12;;;;;;;;;6.75;6.50;;;;;;;;4889909;29;45447;-71
2022/06/23 07:58:42;;;;;;;;;8.00;7.50;;;;;;;;4885815;29;46566;-71
2022/06/23 08:01:17;;;;;;;;;9.75;6.50;;;;;;;;4888885;29;48272;-71
2022/06/23 08:04:03;;;;;;;;;8.75;5.50;;;;;;;;4897053;28;45408;-71
2022/06/23 08:06:29;;;;;;;;;7.25;5.75;;;;;;;;4889908;29;45507;-71
2022/06/23 08:08:58;;;;;;;;;6.75;6.75;;;;;;;;4885133;29;45675;-71
2022/06/23 08:14:11;;;;;;;;;8.00;7.00;;;;;;;;4891638;29;45471;-72
2022/06/23 08:16:49;;;;;;;;;7.20;6.00;;;;;;;;4897593;29;45406;-71
2022/06/23 08:19:24;;;;;;;;;5.20;5.20;;;;;;;;4889416;29;45360;-71
2022/06/23 08:21:55;;;;;;;;;6.00;5.80;;;;;;;;4898028;28;45519;-71
2022/06/23 08:24:25;;;;;;;;;7.80;6.00;;;;;;;;4877526;29;45317;-71
2022/06/23 08:26:55;;;;;;;;;4.80;4.80;;;;;;;;4883154;29;45602;-70
2022/06/23 08:29:24;;;;;;;;;5.25;5.25;;;;;;;;4897044;28;45485;-71
2022/06/23 08:31:49;;;;;;;;;5.00;5.00;;;;;;;;4886374;29;45596;-71
2022/06/23 08:34:15;;;;;;;;;4.75;3.75;;;;;;;;4885261;29;45419;-71
2022/06/23 08:36:48;;;;;;;;;5.60;5.60;;;;;;;;4889689;28;45407;-71
2022/06/23 08:39:23;;;;;;;;;5.60;5.20;;;;;;;;4889718;29;45380;-71
2022/06/23 08:41:48;;;;;;;;;5.80;5.60;;;;;;;;4890800;28;46524;-71
2022/06/23 08:44:19;;;;;;;;;6.00;4.75;;;;;;;;4893396;29;45251;-71
2022/06/23 08:46:51;;;;;;;;;4.20;4.20;;;;;;;;4893976;28;45310;-71
2022/06/23 08:49:44;;;;;;;;;6.60;5.80;;;;;;;;4881805;29;45586;-71
2022/06/23 08:52:23;;;;;;;;;5.20;4.80;;;;;;;;4905336;28;47624;-71
2022/06/23 08:55:08;;;;;;;;;5.20;5.20;;;;;;;;4883546;29;45232;-71
2022/06/23 08:57:47;;;;;;;;;5.20;5.00;;;;;;;;4880895;29;45561;-71
2022/06/23 09:00:24;;;;;;;;;6.80;4.00;;;;;;;;4876061;29;45461;-71
2022/06/23 09:02:55;;;;;;;;;3.60;3.00;;;;;;;;4877019;29;45639;-71
2022/06/23 09:05:24;;;;;;;;;4.00;4.00;;;;;;;;4888346;29;45342;-71
2022/06/23 09:07:59;;;;;;;;;6.40;4.80;;;;;;;;4876339;29;45273;-71
2022/06/23 09:10:30;;;;;;;;;5.00;5.00;;;;;;;;4880130;29;45494;-71
2022/06/23 09:13:10;;;;;;;;;4.80;4.80;;;;;;;;4883825;29;46488;-72
2022/06/23 09:15:35;;;;;;;;;5.40;5.40;;;;;;;;4896475;28;45279;-72
2022/06/23 09:18:21;;;;;;;;;7.00;5.75;;;;;;;;4889937;28;45301;-71
2022/06/23 09:21:00;;;;;;;;;4.80;4.40;;;;;;;;4897817;28;45233;-71
2022/06/23 09:23:50;;;;;;;;;1.60;1.60;;;;;;;;4886127;29;46370;-72
2022/06/23 09:26:30;;;;;;;;;5.20;5.20;;;;;;;;4893836;29;45257;-71
2022/06/23 09:28:57;;;;;;;;;5.80;5.80;;;;;;;;4896385;28;45272;-71
2022/06/23 09:31:37;;;;;;;;;4.40;4.40;;;;;;;;4885929;29;45360;-72
2022/06/23 09:34:05;;;;;;;;;4.80;4.80;;;;;;;;4882609;29;45297;-72
2022/06/23 09:36:34;;;;;;;;;6.20;4.20;;;;;;;;4895963;29;45253;-72
2022/06/23 09:39:11;;;;;;;;;4.80;4.80;;;;;;;;4885587;29;45475;-72
2022/06/23 09:41:52;;;;;;;;;5.20;4.00;;;;;;;;4889450;28;45483;-72
2022/06/23 09:44:23;;;;;;;;;6.60;5.80;;;;;;;;4893387;29;46719;-72
2022/06/23 09:46:48;;;;;;;;;6.40;5.20;;;;;;;;4889658;28;45853;-72
2022/06/23 09:49:22;;;;;;;;;2.50;2.50;;;;;;;;4877364;28;45370;-72
2022/06/23 09:52:02;;;;;;;;;5.80;4.20;;;;;;;;4892061;29;45495;-72
2022/06/23 09:54:43;;;;;;;;;3.80;3.80;;;;;;;;4883051;29;46637;-72
2022/06/23 09:57:34;;;;;;;;;6.20;5.40;;;;;;;;4890910;29;45535;-72
2022/06/23 10:00:05;;;;;;;;;3.60;3.60;;;;;;;;4892902;28;45676;-72
2022/06/23 10:02:40;;;;;;;;;5.80;3.20;;;;;;;;4877868;29;46261;-72
2022/06/23 10:05:05;;;;;;;;;5.80;5.20;;;;;;;;4878355;29;46468;-74
2022/06/23 10:08:02;;;;;;;;;4.00;4.00;;;;;;;;4877679;29;45268;-72
2022/06/23 10:10:28;;;;;;;;;4.00;4.00;;;;;;;;4883372;29;45455;-72
2022/06/23 10:13:02;;;;;;;;;7.25;5.25;;;;;;;;4880150;29;46869;-72
2022/06/23 10:15:27;;;;;;;;;5.00;5.00;;;;;;;;4885124;28;45453;-72
2022/06/23 10:17:57;;;;;;;;;6.00;6.00;;;;;;;;4884152;29;45339;-72
2022/06/23 10:20:23;;;;;;;;;7.00;6.00;;;;;;;;4894532;28;45366;-72
2022/06/23 10:22:48;;;;;;;;;3.75;3.75;;;;;;;;4886641;29;45590;-73
2022/06/23 10:25:33;;;;;;;;;4.20;4.20;;;;;;;;4896043;29;46898;-71
2022/06/23 10:28:08;;;;;;;;;5.80;5.00;;;;;;;;4883815;29;45266;-73
2022/06/23 10:30:45;;;;;;;;;5.00;4.00;;;;;;;;4882700;29;45325;-72
2022/06/23 10:33:10;;;;;;;;;5.00;5.00;;;;;;;;4879192;29;47139;-71
2022/06/23 10:35:36;;;;;;;;;4.25;4.25;;;;;;;;4898974;29;45482;-71
2022/06/23 10:38:01;;;;;;;;;8.00;6.50;;;;;;;;4895574;28;45715;-71
2022/06/23 10:40:35;;;;;;;;;4.00;4.00;;;;;;;;4900341;28;45362;-72
2022/06/23 10:43:06;;;;;;;;;3.80;3.80;;;;;;;;4883940;29;47325;-71
2022/06/23 10:45:38;;;;;;;;;6.80;5.20;;;;;;;;4896694;29;45484;-71
2022/06/23 10:48:06;;;;;;;;;7.60;7.60;;;;;;;;4894693;28;45471;-71
2022/06/23 10:50:37;;;;;;;;;4.20;4.20;;;;;;;;4901834;28;45516;-71
2022/06/23 10:53:05;;;;;;;;;5.40;5.40;;;;;;;;4896120;28;45586;-71
2022/06/23 10:55:44;;;;;;;;;3.40;3.40;;;;;;;;4901157;28;45593;-72
2022/06/23 10:58:16;;;;;;;;;3.80;3.80;;;;;;;;4880284;29;45293;-72
2022/06/23 11:00:55;;;;;;;;;4.00;4.00;;;;;;;;4889177;28;45309;-71
2022/06/23 11:03:23;;;;;;;;;5.60;4.20;;;;;;;;4883396;29;45420;-71
2022/06/23 11:05:57;;;;;;;;;6.20;4.60;;;;;;;;4889681;28;45404;-72
2022/06/23 11:08:38;;;;;;;;;3.00;3.00;;;;;;;;4881531;29;45333;-72
2022/06/23 11:11:17;;;;;;;;;3.20;3.20;;;;;;;;4895888;29;45431;-71
2022/06/23 11:13:49;;;;;;;;;4.00;4.00;;;;;;;;4874355;29;46218;-72
2022/06/23 11:16:33;;;;;;;;;6.60;6.00;;;;;;;;4895311;29;45888;-71
2022/06/23 11:19:15;;;;;;;;;4.80;4.40;;;;;;;;4889642;29;45232;-73
2022/06/23 11:21:59;;;;;;;;;5.60;4.20;;;;;;;;4885860;29;45321;-72
2022/06/23 11:24:24;;;;;;;;;4.00;4.00;;;;;;;;4893548;29;45398;-71
2022/06/23 11:26:59;;;;;;;;;4.00;4.00;;;;;;;;4891406;28;45496;-72
2022/06/23 11:29:42;;;;;;;;;4.00;4.00;;;;;;;;4880971;29;45360;-72
2022/06/23 11:32:19;;;;;;;;;3.20;3.20;;;;;;;;4892273;29;45410;-72
2022/06/23 11:34:45;;;;;;;;;4.40;4.40;;;;;;;;4883170;29;45483;-71
2022/06/23 11:37:18;;;;;;;;;4.00;4.00;;;;;;;;4893771;28;46355;-70
2022/06/23 11:39:47;;;;;;;;;5.40;5.00;;;;;;;;4893394;29;45955;-71
2022/06/23 11:42:32;;;;;;;;;4.80;4.80;;;;;;;;4898069;29;45339;-70
2022/06/23 11:45:03;;;;;;;;;4.00;4.00;;;;;;;;4879613;29;45669;-70
2022/06/23 11:47:40;;;;;;;;;4.60;4.60;;;;;;;;4885219;29;45508;-72
2022/06/23 11:50:06;;;;;;;;;4.20;4.20;;;;;;;;4892155;29;45364;-71
2022/06/23 11:52:37;;;;;;;;;5.75;4.00;;;;;;;;4884032;29;45339;-71
2022/06/23 11:55:09;;;;;;;;;3.20;3.20;;;;;;;;4887885;29;45474;-71
2022/06/23 11:57:37;;;;;;;;;4.00;4.00;;;;;;;;4884692;28;45471;-71
2022/06/23 12:00:05;;;;;;;;;4.60;3.40;;;;;;;;4889114;29;45519;-71
2022/06/23 12:02:32;;;;;;;;;4.00;4.00;;;;;;;;4897577;28;45368;-71
2022/06/23 12:05:04;;;;;;;;;3.80;3.80;;;;;;;;4904324;28;45471;-71
2022/06/23 12:07:32;;;;;;;;;3.00;3.00;;;;;;;;4900022;28;45643;-72
2022/06/23 12:10:06;;;;;;;;;3.20;3.20;;;;;;;;4904329;28;45244;-72
2022/06/23 12:12:33;;;;;;;;;3.20;3.20;;;;;;;;4899454;28;45425;-71
2022/06/23 12:14:58;;;;;;;;;5.00;3.40;;;;;;;;4902872;29;46121;-71
2022/06/23 12:17:26;;;;;;;;;8.25;8.25;;;;;;;;4890442;29;45221;-71
2022/06/23 12:20:07;;;;;;;;;4.80;4.80;;;;;;;;4886114;29;45375;-71
2022/06/23 12:22:38;;;;;;;;;6.60;5.60;;;;;;;;4885469;29;45435;-71
2022/06/23 12:25:09;;;;;;;;;5.20;3.20;;;;;;;;4890039;29;45544;-71
2022/06/23 12:27:39;;;;;;;;;4.40;3.40;;;;;;;;4893024;29;45614;-71
2022/06/23 12:30:13;;;;;;;;;5.60;4.00;;;;;;;;4902186;28;45485;-71
2022/06/23 12:32:52;;;;;;;;;4.20;3.60;;;;;;;;4897257;28;45518;-71
2022/06/23 12:35:17;;;;;;;;;4.40;4.40;;;;;;;;4901680;29;45470;-71
2022/06/23 12:37:42;;;;;;;;;5.60;5.60;;;;;;;;4896729;29;46373;-71
2022/06/23 12:40:11;;;;;;;;;5.00;5.00;;;;;;;;4903757;28;45274;-71
2022/06/23 12:42:43;;;;;;;;;4.60;4.60;;;;;;;;4899122;28;45515;-71
2022/06/23 12:45:27;;;;;;;;;4.00;4.00;;;;;;;;4902504;28;45569;-71
2022/06/23 12:48:10;;;;;;;;;6.60;4.60;;;;;;;;4881732;28;46866;-71
2022/06/23 12:51:14;;;;;;;;;4.00;4.00;;;;;;;;4903644;28;45300;-71
2022/06/23 12:54:11;;;;;;;;;4.00;4.00;;;;;;;;4896833;29;45362;-71
2022/06/23 12:56:36;;;;;;;;;5.80;5.80;;;;;;;;4883649;29;45589;-72
2022/06/23 12:59:06;;;;;;;;;4.00;4.00;;;;;;;;4898445;28;45465;-71
2022/06/23 13:01:41;;;;;;;;;3.20;3.20;;;;;;;;4901334;28;45209;-70
2022/06/23 13:04:21;;;;;;;;;4.60;3.00;;;;;;;;4898887;29;45562;-72
2022/06/23 13:06:46;;;;;;;;;3.80;3.20;;;;;;;;4898725;28;45909;-71
2022/06/23 13:09:20;;;;;;;;;5.00;5.00;;;;;;;;4899397;29;46123;-71
2022/06/23 13:11:48;;;;;;;;;5.40;5.40;;;;;;;;4899821;28;45446;-71
2022/06/23 13:14:20;;;;;;;;;4.40;4.40;;;;;;;;4900770;29;45439;-71
2022/06/23 13:17:06;;;;;;;;;4.00;4.00;;;;;;;;4898814;29;47114;-71
2022/06/23 13:19:34;;;;;;;;;4.00;3.00;;;;;;;;4901394;29;46339;-71
2022/06/23 13:22:05;;;;;;;;;5.80;5.20;;;;;;;;4895174;28;45218;-70
2022/06/23 13:24:32;;;;;;;;;6.60;5.20;;;;;;;;4903102;28;45300;-71
2022/06/23 13:26:57;;;;;;;;;4.40;4.20;;;;;;;;4896748;28;45389;-71
2022/06/23 13:29:34;;;;;;;;;4.00;4.00;;;;;;;;4893606;28;46841;-71
2022/06/23 13:32:11;;;;;;;;;2.20;2.20;;;;;;;;4882982;29;45517;-71
2022/06/23 13:34:43;;;;;;;;;4.00;3.00;;;;;;;;4899879;28;45265;-72
2022/06/23 13:37:13;;;;;;;;;2.80;2.80;;;;;;;;4884618;29;46226;-71
2022/06/23 13:39:48;;;;;;;;;3.80;3.80;;;;;;;;4889587;28;45341;-69
2022/06/23 13:42:32;;;;;;;;;4.20;4.20;;;;;;;;4893119;29;45344;-71
2022/06/23 13:45:16;;;;;;;;;3.60;3.60;;;;;;;;4892323;29;45342;-71
2022/06/23 13:47:41;;;;;;;;;4.80;4.80;;;;;;;;4880179;28;45991;-71
2022/06/23 13:50:12;;;;;;;;;3.00;3.00;;;;;;;;4901870;28;45521;-72
2022/06/23 13:52:51;;;;;;;;;4.60;4.00;;;;;;;;4889755;29;45387;-71
2022/06/23 13:55:22;;;;;;;;;4.40;4.40;;;;;;;;4888629;29;45314;-71
2022/06/23 13:57:54;;;;;;;;;4.00;4.00;;;;;;;;4878704;28;45387;-72
2022/06/23 14:00:38;;;;;;;;;5.20;5.20;;;;;;;;4913114;28;46511;-72
2022/06/23 14:03:32;;;;;;;;;4.80;4.20;;;;;;;;4896265;28;45347;-71
2022/06/23 14:06:14;;;;;;;;;5.00;3.40;;;;;;;;4890982;29;45410;-71
2022/06/23 14:08:46;;;;;;;;;3.20;3.20;;;;;;;;4890853;29;45446;-71
2022/06/23 14:11:19;;;;;;;;;4.00;3.20;;;;;;;;4898596;29;45582;-72
2022/06/23 14:13:51;;;;;;;;;6.00;4.20;;;;;;;;4892950;29;45496;-72
2022/06/23 14:16:29;;;;;;;;;4.00;4.00;;;;;;;;4896295;29;45356;-72
2022/06/23 14:18:57;;;;;;;;;2.80;2.80;;;;;;;;4888263;29;45543;-71
2022/06/23 14:21:25;;;;;;;;;2.40;2.00;;;;;;;;4898468;29;47586;-71
2022/06/23 14:23:57;;;;;;;;;7.60;4.00;;;;;;;;4875786;29;45384;-71
2022/06/23 14:26:22;;;;;;;;;3.60;3.40;;;;;;;;4895904;29;45281;-72
2022/06/23 14:28:52;;;;;;;;;5.50;2.75;;;;;;;;4869850;29;45445;-71
2022/06/23 14:31:21;;;;;;;;;3.00;3.00;;;;;;;;4885726;29;45560;-71
2022/06/23 14:34:12;;;;;;;;;3.20;3.20;;;;;;;;4880207;29;45363;-73
2022/06/23 14:36:46;;;;;;;;;4.00;4.00;;;;;;;;4903820;28;45387;-73
2022/06/23 14:39:15;;;;;;;;;4.80;4.00;;;;;;;;4899340;28;46752;-74
2022/06/23 14:41:40;;;;;;;;;6.00;3.20;;;;;;;;4896026;28;45613;-74
2022/06/23 14:44:24;;;;;;;;;4.00;3.00;;;;;;;;4886529;29;45481;-74
2022/06/23 14:46:49;;;;;;;;;2.60;2.60;;;;;;;;4889734;28;45514;-74
2022/06/23 14:49:21;;;;;;;;;3.00;3.00;;;;;;;;4877631;29;45921;-74
2022/06/23 14:52:06;;;;;;;;;2.00;2.00;;;;;;;;4890828;29;45499;-74
2022/06/23 14:54:39;;;;;;;;;3.00;3.00;;;;;;;;4883505;29;45289;-74
2022/06/23 14:57:11;;;;;;;;;4.80;4.00;;;;;;;;4891732;29;45405;-74
2022/06/23 14:59:47;;;;;;;;;3.00;3.00;;;;;;;;4885587;29;45760;-73
2022/06/23 15:02:24;;;;;;;;;5.00;3.80;;;;;;;;4892002;29;45355;-73
2022/06/23 15:04:54;;;;;;;;;5.20;5.20;;;;;;;;4892125;29;45428;-75
2022/06/23 15:07:29;;;;;;;;;4.00;4.00;;;;;;;;4895847;29;45369;-74
2022/06/23 15:10:09;;;;;;;;;3.80;3.80;;;;;;;;4897397;29;45569;-74
2022/06/23 15:12:43;;;;;;;;;3.40;3.40;;;;;;;;4895603;28;45418;-74
2022/06/23 15:15:17;;;;;;;;;4.00;4.00;;;;;;;;4896844;29;45418;-74